sensor_id;sensor_type;location;lat;lon;timestamp;temperature;humidity
70762;DHT22;58360;0.000;0.000;2023-06-05T00:49:25;16.30;82.50
70762;DHT22;58360;0.000;0.000;2023-06-05T00:55:15;16.10;83.90
70762;DHT22;58360;0.000;0.000;2023-06-05T01:05:27;16.10;83.50
70762;DHT22;58360;0.000;0.000;2023-06-05T01:17:20;15.90;83.90
70762;DHT22;58360;0.000;0.000;2023-06-05T01:23:13;15.90;83.80
70762;DHT22;58360;0.000;0.000;2023-06-05T01:36:02;15.70;84.00
70762;DHT22;58360;0.000;0.000;2023-06-05T01:46:12;15.50;84.50
70762;DHT22;58360;0.000;0.000;2023-06-05T01:52:09;15.80;83.30
70762;DHT22;58360;0.000;0.000;2023-06-05T01:58:31;15.60;83.30
70762;DHT22;58360;0.000;0.000;2023-06-05T02:12:33;15.10;85.40
70762;DHT22;58360;0.000;0.000;2023-06-05T02:25:38;15.20;84.60
70762;DHT22;58360;0.000;0.000;2023-06-05T02:31:54;15.00;86.10
70762;DHT22;58360;0.000;0.000;2023-06-05T02:38:17;15.10;85.00
70762;DHT22;58360;0.000;0.000;2023-06-05T02:44:52;15.10;84.90
70762;DHT22;58360;0.000;0.000;2023-06-05T02:50:49;14.80;85.50
70762;DHT22;58360;0.000;0.000;2023-06-05T02:56:42;15.00;84.70
70762;DHT22;58360;0.000;0.000;2023-06-05T05:19:10;14.90;85.70
70762;DHT22;58360;0.000;0.000;2023-06-05T05:42:18;16.30;80.00
70762;DHT22;58360;0.000;0.000;2023-06-05T06:13:13;16.50;78.80
70762;DHT22;58360;0.000;0.000;2023-06-05T06:59:40;19.70;71.30
70762;DHT22;58360;0.000;0.000;2023-06-05T07:02:20;20.60;67.00
70762;DHT22;58360;0.000;0.000;2023-06-05T07:04:46;21.00;66.30
70762;DHT22;58360;0.000;0.000;2023-06-05T07:07:16;21.40;65.20
70762;DHT22;58360;0.000;0.000;2023-06-05T07:09:43;21.60;64.80
70762;DHT22;58360;0.000;0.000;2023-06-05T07:12:14;22.30;61.50
70762;DHT22;58360;0.000;0.000;2023-06-05T07:14:40;23.20;59.70
70762;DHT22;58360;0.000;0.000;2023-06-05T07:17:06;23.40;58.40
70762;DHT22;58360;0.000;0.000;2023-06-05T07:19:33;23.40;58.40
70762;DHT22;58360;0.000;0.000;2023-06-05T07:22:00;23.60;57.40
70762;DHT22;58360;0.000;0.000;2023-06-05T07:24:28;24.10;56.20
70762;DHT22;58360;0.000;0.000;2023-06-05T07:26:55;24.50;54.70
70762;DHT22;58360;0.000;0.000;2023-06-05T07:29:22;24.90;54.00
70762;DHT22;58360;0.000;0.000;2023-06-05T07:31:53;25.10;53.40
70762;DHT22;58360;0.000;0.000;2023-06-05T07:34:20;25.10;53.40
70762;DHT22;58360;0.000;0.000;2023-06-05T07:36:47;25.40;53.70
70762;DHT22;58360;0.000;0.000;2023-06-05T07:39:14;26.10;52.40
70762;DHT22;58360;0.000;0.000;2023-06-05T07:41:40;26.10;53.60
70762;DHT22;58360;0.000;0.000;2023-06-05T07:44:09;26.10;53.20
70762;DHT22;58360;0.000;0.000;2023-06-05T07:46:34;26.60;51.00
70762;DHT22;58360;0.000;0.000;2023-06-05T07:49:00;27.20;49.90
70762;DHT22;58360;0.000;0.000;2023-06-05T07:51:26;27.80;50.40
70762;DHT22;58360;0.000;0.000;2023-06-05T07:53:51;28.30;47.80
70762;DHT22;58360;0.000;0.000;2023-06-05T07:56:17;28.80;47.50
70762;DHT22;58360;0.000;0.000;2023-06-05T07:58:43;29.60;45.40
70762;DHT22;58360;0.000;0.000;2023-06-05T08:01:10;29.90;44.00
70762;DHT22;58360;0.000;0.000;2023-06-05T08:03:37;30.30;42.90
70762;DHT22;58360;0.000;0.000;2023-06-05T08:06:03;30.10;43.30
70762;DHT22;58360;0.000;0.000;2023-06-05T08:08:28;30.30;44.40
70762;DHT22;58360;0.000;0.000;2023-06-05T08:10:55;31.00;41.80
70762;DHT22;58360;0.000;0.000;2023-06-05T08:13:21;30.80;42.40
70762;DHT22;58360;0.000;0.000;2023-06-05T08:15:47;30.30;42.40
70762;DHT22;58360;0.000;0.000;2023-06-05T08:18:13;30.30;42.70
70762;DHT22;58360;0.000;0.000;2023-06-05T08:20:39;30.00;42.90
70762;DHT22;58360;0.000;0.000;2023-06-05T08:23:05;29.90;43.30
70762;DHT22;58360;0.000;0.000;2023-06-05T08:25:31;29.50;43.30
70762;DHT22;58360;0.000;0.000;2023-06-05T08:27:57;29.50;43.80
70762;DHT22;58360;0.000;0.000;2023-06-05T08:30:22;30.80;42.20
70762;DHT22;58360;0.000;0.000;2023-06-05T08:32:48;31.70;41.80
70762;DHT22;58360;0.000;0.000;2023-06-05T08:35:13;31.90;41.50
70762;DHT22;58360;0.000;0.000;2023-06-05T08:37:39;31.50;41.40
70762;DHT22;58360;0.000;0.000;2023-06-05T08:40:06;31.90;40.80
70762;DHT22;58360;0.000;0.000;2023-06-05T08:42:34;32.90;39.70
70762;DHT22;58360;0.000;0.000;2023-06-05T08:45:00;33.60;39.00
70762;DHT22;58360;0.000;0.000;2023-06-05T08:47:28;33.20;39.10
70762;DHT22;58360;0.000;0.000;2023-06-05T08:49:56;33.00;39.90
70762;DHT22;58360;0.000;0.000;2023-06-05T08:52:25;34.20;38.60
70762;DHT22;58360;0.000;0.000;2023-06-05T08:54:55;34.80;37.80
70762;DHT22;58360;0.000;0.000;2023-06-05T08:57:22;34.60;36.70
70762;DHT22;58360;0.000;0.000;2023-06-05T08:59:49;34.10;37.80
70762;DHT22;58360;0.000;0.000;2023-06-05T09:02:15;34.70;38.70
70762;DHT22;58360;0.000;0.000;2023-06-05T09:04:41;35.10;37.70
70762;DHT22;58360;0.000;0.000;2023-06-05T09:07:06;35.40;36.50
70762;DHT22;58360;0.000;0.000;2023-06-05T09:09:33;35.00;37.30
70762;DHT22;58360;0.000;0.000;2023-06-05T09:12:07;36.20;35.40
70762;DHT22;58360;0.000;0.000;2023-06-05T09:14:34;36.80;34.50
70762;DHT22;58360;0.000;0.000;2023-06-05T09:17:02;37.00;34.10
70762;DHT22;58360;0.000;0.000;2023-06-05T09:19:39;35.80;36.30
70762;DHT22;58360;0.000;0.000;2023-06-05T09:22:10;36.50;35.00
70762;DHT22;58360;0.000;0.000;2023-06-05T09:24:37;36.70;35.30
70762;DHT22;58360;0.000;0.000;2023-06-05T09:27:10;36.20;36.90
70762;DHT22;58360;0.000;0.000;2023-06-05T09:29:40;37.10;35.40
70762;DHT22;58360;0.000;0.000;2023-06-05T09:32:08;37.80;36.00
70762;DHT22;58360;0.000;0.000;2023-06-05T09:34:35;37.40;34.40
70762;DHT22;58360;0.000;0.000;2023-06-05T09:37:06;37.10;35.00
70762;DHT22;58360;0.000;0.000;2023-06-05T09:39:35;37.10;35.80
70762;DHT22;58360;0.000;0.000;2023-06-05T09:42:01;37.30;34.30
70762;DHT22;58360;0.000;0.000;2023-06-05T09:44:27;37.40;34.10
70762;DHT22;58360;0.000;0.000;2023-06-05T09:46:59;37.40;34.10
70762;DHT22;58360;0.000;0.000;2023-06-05T09:52:03;39.20;33.40
70762;DHT22;58360;0.000;0.000;2023-06-05T09:54:30;40.90;32.80
70762;DHT22;58360;0.000;0.000;2023-06-05T09:57:02;41.50;31.30
70762;DHT22;58360;0.000;0.000;2023-06-05T09:59:32;41.10;30.90
70762;DHT22;58360;0.000;0.000;2023-06-05T10:02:03;40.40;31.70
70762;DHT22;58360;0.000;0.000;2023-06-05T10:04:43;39.60;32.50
70762;DHT22;58360;0.000;0.000;2023-06-05T10:07:11;39.30;32.70
70762;DHT22;58360;0.000;0.000;2023-06-05T10:09:38;38.80;32.80
70762;DHT22;58360;0.000;0.000;2023-06-05T10:12:04;39.40;32.80
70762;DHT22;58360;0.000;0.000;2023-06-05T10:14:30;40.20;31.90
70762;DHT22;58360;0.000;0.000;2023-06-05T10:16:57;41.60;30.90
70762;DHT22;58360;0.000;0.000;2023-06-05T10:19:24;41.40;31.20
70762;DHT22;58360;0.000;0.000;2023-06-05T10:21:50;39.90;31.80
70762;DHT22;58360;0.000;0.000;2023-06-05T10:24:34;40.90;30.50
70762;DHT22;58360;0.000;0.000;2023-06-05T10:30:20;41.30;30.50
70762;DHT22;58360;0.000;0.000;2023-06-05T10:38:24;39.70;31.60
70762;DHT22;58360;0.000;0.000;2023-06-05T10:40:55;39.80;31.50
70762;DHT22;58360;0.000;0.000;2023-06-05T10:43:32;39.80;31.70
70762;DHT22;58360;0.000;0.000;2023-06-05T10:49:07;37.60;34.00
70762;DHT22;58360;0.000;0.000;2023-06-05T10:54:11;38.30;32.80
70762;DHT22;58360;0.000;0.000;2023-06-05T10:56:53;38.10;33.30
70762;DHT22;58360;0.000;0.000;2023-06-05T10:59:24;39.10;32.10
70762;DHT22;58360;0.000;0.000;2023-06-05T11:07:21;38.50;33.00
70762;DHT22;58360;0.000;0.000;2023-06-05T11:15:07;39.40;30.90
70762;DHT22;58360;0.000;0.000;2023-06-05T11:17:38;39.30;31.30
70762;DHT22;58360;0.000;0.000;2023-06-05T11:20:38;39.40;33.10
70762;DHT22;58360;0.000;0.000;2023-06-05T11:27:56;40.50;31.30
70762;DHT22;58360;0.000;0.000;2023-06-05T11:30:26;39.70;31.90
70762;DHT22;58360;0.000;0.000;2023-06-05T11:32:54;38.60;32.00
70762;DHT22;58360;0.000;0.000;2023-06-05T11:35:26;37.60;33.30
70762;DHT22;58360;0.000;0.000;2023-06-05T11:38:13;37.70;33.70
70762;DHT22;58360;0.000;0.000;2023-06-05T11:40:39;38.30;32.50
70762;DHT22;58360;0.000;0.000;2023-06-05T11:43:07;39.20;31.60
70762;DHT22;58360;0.000;0.000;2023-06-05T11:45:34;39.50;31.90
70762;DHT22;58360;0.000;0.000;2023-06-05T11:48:19;39.10;32.20
70762;DHT22;58360;0.000;0.000;2023-06-05T11:50:53;38.40;32.30
70762;DHT22;58360;0.000;0.000;2023-06-05T11:53:20;39.00;32.50
70762;DHT22;58360;0.000;0.000;2023-06-05T11:55:46;39.90;32.00
70762;DHT22;58360;0.000;0.000;2023-06-05T11:58:24;39.00;32.50
70762;DHT22;58360;0.000;0.000;2023-06-05T12:00:51;39.50;31.70
70762;DHT22;58360;0.000;0.000;2023-06-05T12:03:20;38.50;31.90
70762;DHT22;58360;0.000;0.000;2023-06-05T12:05:50;39.20;32.90
70762;DHT22;58360;0.000;0.000;2023-06-05T12:08:23;39.40;31.90
70762;DHT22;58360;0.000;0.000;2023-06-05T12:10:53;39.00;31.40
70762;DHT22;58360;0.000;0.000;2023-06-05T12:13:20;38.40;32.10
70762;DHT22;58360;0.000;0.000;2023-06-05T12:15:58;37.60;32.30
70762;DHT22;58360;0.000;0.000;2023-06-05T12:18:31;38.10;32.40
70762;DHT22;58360;0.000;0.000;2023-06-05T12:20:58;39.20;32.00
70762;DHT22;58360;0.000;0.000;2023-06-05T12:23:24;39.10;31.70
70762;DHT22;58360;0.000;0.000;2023-06-05T12:26:03;38.70;31.50
70762;DHT22;58360;0.000;0.000;2023-06-05T12:28:30;38.10;32.20
70762;DHT22;58360;0.000;0.000;2023-06-05T12:30:56;38.90;31.40
70762;DHT22;58360;0.000;0.000;2023-06-05T12:33:23;39.00;31.90
70762;DHT22;58360;0.000;0.000;2023-06-05T12:36:05;38.70;31.60
70762;DHT22;58360;0.000;0.000;2023-06-05T12:38:36;38.70;31.60
70762;DHT22;58360;0.000;0.000;2023-06-05T12:41:02;38.80;31.80
70762;DHT22;58360;0.000;0.000;2023-06-05T12:43:27;38.90;31.60
70762;DHT22;58360;0.000;0.000;2023-06-05T12:45:53;38.90;31.80
70762;DHT22;58360;0.000;0.000;2023-06-05T12:48:19;38.90;32.20
70762;DHT22;58360;0.000;0.000;2023-06-05T12:50:46;39.50;31.30
70762;DHT22;58360;0.000;0.000;2023-06-05T12:53:12;39.60;31.10
70762;DHT22;58360;0.000;0.000;2023-06-05T12:55:38;38.70;31.40
70762;DHT22;58360;0.000;0.000;2023-06-05T12:58:04;38.20;31.40
70762;DHT22;58360;0.000;0.000;2023-06-05T13:00:29;37.70;31.40
70762;DHT22;58360;0.000;0.000;2023-06-05T13:02:55;37.70;32.80
70762;DHT22;58360;0.000;0.000;2023-06-05T13:05:21;38.30;32.20
70762;DHT22;58360;0.000;0.000;2023-06-05T13:07:46;37.90;31.90
70762;DHT22;58360;0.000;0.000;2023-06-05T13:10:12;37.80;32.30
70762;DHT22;58360;0.000;0.000;2023-06-05T13:12:38;36.90;33.10
70762;DHT22;58360;0.000;0.000;2023-06-05T13:15:04;36.60;34.20
70762;DHT22;58360;0.000;0.000;2023-06-05T13:17:32;36.80;33.20
70762;DHT22;58360;0.000;0.000;2023-06-05T13:20:00;36.60;33.10
70762;DHT22;58360;0.000;0.000;2023-06-05T13:22:26;35.40;34.00
70762;DHT22;58360;0.000;0.000;2023-06-05T13:24:52;34.90;34.40
70762;DHT22;58360;0.000;0.000;2023-06-05T13:27:17;35.40;34.50
70762;DHT22;58360;0.000;0.000;2023-06-05T13:29:45;35.60;34.40
70762;DHT22;58360;0.000;0.000;2023-06-05T13:32:10;35.60;34.70
70762;DHT22;58360;0.000;0.000;2023-06-05T13:34:36;35.70;35.60
70762;DHT22;58360;0.000;0.000;2023-06-05T13:37:02;35.90;34.30
70762;DHT22;58360;0.000;0.000;2023-06-05T13:39:28;36.40;33.70
70762;DHT22;58360;0.000;0.000;2023-06-05T13:41:54;36.40;33.60
70762;DHT22;58360;0.000;0.000;2023-06-05T13:44:20;36.30;33.30
70762;DHT22;58360;0.000;0.000;2023-06-05T13:46:46;35.90;34.30
70762;DHT22;58360;0.000;0.000;2023-06-05T13:49:12;35.60;33.80
70762;DHT22;58360;0.000;0.000;2023-06-05T13:51:37;35.00;35.30
70762;DHT22;58360;0.000;0.000;2023-06-05T13:54:04;34.90;35.20
70762;DHT22;58360;0.000;0.000;2023-06-05T13:56:30;35.30;35.30
70762;DHT22;58360;0.000;0.000;2023-06-05T13:58:56;34.70;35.60
70762;DHT22;58360;0.000;0.000;2023-06-05T14:01:23;34.70;35.80
70762;DHT22;58360;0.000;0.000;2023-06-05T14:03:49;34.50;35.70
70762;DHT22;58360;0.000;0.000;2023-06-05T14:06:17;34.40;35.70
70762;DHT22;58360;0.000;0.000;2023-06-05T14:08:43;34.40;34.60
70762;DHT22;58360;0.000;0.000;2023-06-05T14:11:09;33.70;35.40
70762;DHT22;58360;0.000;0.000;2023-06-05T14:13:35;33.60;35.50
70762;DHT22;58360;0.000;0.000;2023-06-05T14:16:01;33.40;35.40
70762;DHT22;58360;0.000;0.000;2023-06-05T14:18:29;33.50;35.90
70762;DHT22;58360;0.000;0.000;2023-06-05T14:20:55;33.60;35.60
70762;DHT22;58360;0.000;0.000;2023-06-05T14:23:21;33.70;35.90
70762;DHT22;58360;0.000;0.000;2023-06-05T14:25:49;33.40;36.40
70762;DHT22;58360;0.000;0.000;2023-06-05T14:28:15;33.70;36.00
70762;DHT22;58360;0.000;0.000;2023-06-05T14:30:41;33.30;37.00
70762;DHT22;58360;0.000;0.000;2023-06-05T14:33:06;33.00;36.00
70762;DHT22;58360;0.000;0.000;2023-06-05T14:35:32;32.50;36.80
70762;DHT22;58360;0.000;0.000;2023-06-05T14:37:58;32.30;37.30
70762;DHT22;58360;0.000;0.000;2023-06-05T14:40:24;32.10;37.30
70762;DHT22;58360;0.000;0.000;2023-06-05T14:42:50;32.10;37.20
70762;DHT22;58360;0.000;0.000;2023-06-05T14:45:16;32.10;37.20
70762;DHT22;58360;0.000;0.000;2023-06-05T14:47:42;32.10;38.70
70762;DHT22;58360;0.000;0.000;2023-06-05T14:50:09;31.70;37.80
70762;DHT22;58360;0.000;0.000;2023-06-05T14:52:35;31.30;37.60
70762;DHT22;58360;0.000;0.000;2023-06-05T14:55:02;31.30;38.10
70762;DHT22;58360;0.000;0.000;2023-06-05T14:57:28;31.40;38.30
70762;DHT22;58360;0.000;0.000;2023-06-05T14:59:54;31.70;37.60
70762;DHT22;58360;0.000;0.000;2023-06-05T15:02:20;31.80;37.90
70762;DHT22;58360;0.000;0.000;2023-06-05T15:04:48;31.80;37.60
70762;DHT22;58360;0.000;0.000;2023-06-05T15:07:18;31.70;37.10
70762;DHT22;58360;0.000;0.000;2023-06-05T15:09:45;31.70;37.70
70762;DHT22;58360;0.000;0.000;2023-06-05T15:12:11;31.50;38.10
70762;DHT22;58360;0.000;0.000;2023-06-05T15:14:37;31.00;39.50
70762;DHT22;58360;0.000;0.000;2023-06-05T15:17:03;31.10;38.60
70762;DHT22;58360;0.000;0.000;2023-06-05T15:19:28;31.10;39.00
70762;DHT22;58360;0.000;0.000;2023-06-05T15:21:54;31.10;38.70
70762;DHT22;58360;0.000;0.000;2023-06-05T15:24:20;31.00;38.60
70762;DHT22;58360;0.000;0.000;2023-06-05T15:26:45;30.90;38.60
70762;DHT22;58360;0.000;0.000;2023-06-05T15:29:11;30.80;38.90
70762;DHT22;58360;0.000;0.000;2023-06-05T15:31:37;30.90;38.30
70762;DHT22;58360;0.000;0.000;2023-06-05T15:34:02;30.60;39.70
70762;DHT22;58360;0.000;0.000;2023-06-05T15:36:28;30.60;39.80
70762;DHT22;58360;0.000;0.000;2023-06-05T15:38:54;30.40;40.40
70762;DHT22;58360;0.000;0.000;2023-06-05T15:41:21;30.50;41.40
70762;DHT22;58360;0.000;0.000;2023-06-05T15:43:47;30.70;40.60
70762;DHT22;58360;0.000;0.000;2023-06-05T15:46:13;30.70;40.80
70762;DHT22;58360;0.000;0.000;2023-06-05T15:48:38;30.50;40.80
70762;DHT22;58360;0.000;0.000;2023-06-05T15:51:05;30.40;40.10
70762;DHT22;58360;0.000;0.000;2023-06-05T15:53:31;30.40;40.40
70762;DHT22;58360;0.000;0.000;2023-06-05T15:55:56;30.10;40.30
70762;DHT22;58360;0.000;0.000;2023-06-05T15:58:22;29.90;41.40
70762;DHT22;58360;0.000;0.000;2023-06-05T16:00:48;29.10;42.10
70762;DHT22;58360;0.000;0.000;2023-06-05T16:03:14;28.80;42.80
70762;DHT22;58360;0.000;0.000;2023-06-05T16:05:40;28.30;43.60
70762;DHT22;58360;0.000;0.000;2023-06-05T16:08:06;28.10;44.50
70762;DHT22;58360;0.000;0.000;2023-06-05T16:10:32;27.90;44.90
70762;DHT22;58360;0.000;0.000;2023-06-05T16:12:57;27.70;45.20
70762;DHT22;58360;0.000;0.000;2023-06-05T16:15:23;27.60;45.30
70762;DHT22;58360;0.000;0.000;2023-06-05T16:17:48;27.60;45.70
70762;DHT22;58360;0.000;0.000;2023-06-05T16:20:16;27.60;45.50
70762;DHT22;58360;0.000;0.000;2023-06-05T16:22:42;27.40;45.60
70762;DHT22;58360;0.000;0.000;2023-06-05T16:25:09;27.40;45.40
70762;DHT22;58360;0.000;0.000;2023-06-05T16:27:34;27.40;45.90
70762;DHT22;58360;0.000;0.000;2023-06-05T16:30:00;27.10;47.30
70762;DHT22;58360;0.000;0.000;2023-06-05T16:32:26;27.10;46.80
70762;DHT22;58360;0.000;0.000;2023-06-05T16:34:51;26.70;47.50
70762;DHT22;58360;0.000;0.000;2023-06-05T16:37:17;26.60;47.70
70762;DHT22;58360;0.000;0.000;2023-06-05T16:39:43;26.70;48.70
70762;DHT22;58360;0.000;0.000;2023-06-05T16:42:10;26.50;47.80
70762;DHT22;58360;0.000;0.000;2023-06-05T16:44:35;26.40;47.90
70762;DHT22;58360;0.000;0.000;2023-06-05T16:47:01;26.40;47.70
70762;DHT22;58360;0.000;0.000;2023-06-05T16:49:28;26.70;47.00
70762;DHT22;58360;0.000;0.000;2023-06-05T16:51:54;26.60;47.30
70762;DHT22;58360;0.000;0.000;2023-06-05T16:54:20;26.40;47.90
70762;DHT22;58360;0.000;0.000;2023-06-05T16:56:48;26.10;48.70
70762;DHT22;58360;0.000;0.000;2023-06-05T16:59:16;26.00;48.60
70762;DHT22;58360;0.000;0.000;2023-06-05T17:01:42;25.90;48.60
70762;DHT22;58360;0.000;0.000;2023-06-05T17:04:09;25.90;49.00
70762;DHT22;58360;0.000;0.000;2023-06-05T17:06:36;25.70;49.30
70762;DHT22;58360;0.000;0.000;2023-06-05T17:09:02;25.80;49.30
70762;DHT22;58360;0.000;0.000;2023-06-05T17:11:28;25.90;48.80
70762;DHT22;58360;0.000;0.000;2023-06-05T17:13:55;25.70;49.10
70762;DHT22;58360;0.000;0.000;2023-06-05T17:16:20;25.80;49.50
70762;DHT22;58360;0.000;0.000;2023-06-05T17:18:46;25.70;49.10
70762;DHT22;58360;0.000;0.000;2023-06-05T17:21:12;25.70;49.00
70762;DHT22;58360;0.000;0.000;2023-06-05T17:23:37;25.60;49.20
70762;DHT22;58360;0.000;0.000;2023-06-05T17:26:03;25.50;48.90
70762;DHT22;58360;0.000;0.000;2023-06-05T17:28:29;25.30;49.20
70762;DHT22;58360;0.000;0.000;2023-06-05T17:30:55;25.10;49.60
70762;DHT22;58360;0.000;0.000;2023-06-05T17:33:22;25.10;50.20
70762;DHT22;58360;0.000;0.000;2023-06-05T17:35:48;25.30;49.70
70762;DHT22;58360;0.000;0.000;2023-06-05T17:38:14;25.40;49.60
70762;DHT22;58360;0.000;0.000;2023-06-05T17:40:40;25.00;49.40
70762;DHT22;58360;0.000;0.000;2023-06-05T17:43:07;24.90;50.20
70762;DHT22;58360;0.000;0.000;2023-06-05T17:45:32;24.90;51.10
70762;DHT22;58360;0.000;0.000;2023-06-05T17:48:05;24.90;50.80
70762;DHT22;58360;0.000;0.000;2023-06-05T17:50:31;24.80;50.80
70762;DHT22;58360;0.000;0.000;2023-06-05T17:52:57;24.90;51.10
70762;DHT22;58360;0.000;0.000;2023-06-05T17:55:23;24.90;50.90
70762;DHT22;58360;0.000;0.000;2023-06-05T17:57:49;24.80;50.80
70762;DHT22;58360;0.000;0.000;2023-06-05T18:00:18;24.90;50.80
70762;DHT22;58360;0.000;0.000;2023-06-05T18:02:44;24.90;50.30
70762;DHT22;58360;0.000;0.000;2023-06-05T18:05:10;24.70;50.60
70762;DHT22;58360;0.000;0.000;2023-06-05T18:07:35;24.50;51.20
70762;DHT22;58360;0.000;0.000;2023-06-05T18:10:01;24.60;51.00
70762;DHT22;58360;0.000;0.000;2023-06-05T18:12:27;24.60;50.70
70762;DHT22;58360;0.000;0.000;2023-06-05T18:14:53;24.30;51.80
70762;DHT22;58360;0.000;0.000;2023-06-05T18:17:19;24.10;52.10
70762;DHT22;58360;0.000;0.000;2023-06-05T18:19:45;24.10;52.20
70762;DHT22;58360;0.000;0.000;2023-06-05T18:22:12;24.10;52.10
70762;DHT22;58360;0.000;0.000;2023-06-05T18:24:38;24.00;51.90
70762;DHT22;58360;0.000;0.000;2023-06-05T18:27:06;23.90;52.60
70762;DHT22;58360;0.000;0.000;2023-06-05T18:29:32;23.70;52.50
70762;DHT22;58360;0.000;0.000;2023-06-05T18:31:58;23.70;52.80
70762;DHT22;58360;0.000;0.000;2023-06-05T18:34:23;23.60;53.00
70762;DHT22;58360;0.000;0.000;2023-06-05T18:36:49;23.40;53.40
70762;DHT22;58360;0.000;0.000;2023-06-05T18:39:14;23.30;53.60
70762;DHT22;58360;0.000;0.000;2023-06-05T18:41:41;23.30;53.90
70762;DHT22;58360;0.000;0.000;2023-06-05T18:44:07;23.40;53.70
70762;DHT22;58360;0.000;0.000;2023-06-05T18:46:33;23.40;53.40
70762;DHT22;58360;0.000;0.000;2023-06-05T18:48:59;23.60;52.50
70762;DHT22;58360;0.000;0.000;2023-06-05T18:51:25;23.60;52.30
70762;DHT22;58360;0.000;0.000;2023-06-05T18:53:50;23.40;52.60
70762;DHT22;58360;0.000;0.000;2023-06-05T18:56:16;23.20;53.00
70762;DHT22;58360;0.000;0.000;2023-06-05T18:58:42;23.20;52.90
70762;DHT22;58360;0.000;0.000;2023-06-05T19:01:07;22.90;53.90
70762;DHT22;58360;0.000;0.000;2023-06-05T19:03:33;22.90;54.00
70762;DHT22;58360;0.000;0.000;2023-06-05T19:05:59;22.90;53.90
70762;DHT22;58360;0.000;0.000;2023-06-05T19:08:24;23.00;53.00
70762;DHT22;58360;0.000;0.000;2023-06-05T19:10:50;22.80;53.60
70762;DHT22;58360;0.000;0.000;2023-06-05T19:13:16;22.70;54.10
70762;DHT22;58360;0.000;0.000;2023-06-05T19:15:44;22.50;54.10
70762;DHT22;58360;0.000;0.000;2023-06-05T19:18:12;22.40;54.40
70762;DHT22;58360;0.000;0.000;2023-06-05T19:20:38;22.60;55.00
70762;DHT22;58360;0.000;0.000;2023-06-05T19:23:03;22.60;54.20
70762;DHT22;58360;0.000;0.000;2023-06-05T19:25:30;22.40;54.50
70762;DHT22;58360;0.000;0.000;2023-06-05T19:27:55;22.30;55.40
70762;DHT22;58360;0.000;0.000;2023-06-05T19:30:21;22.30;55.10
70762;DHT22;58360;0.000;0.000;2023-06-05T19:32:47;22.30;55.20
70762;DHT22;58360;0.000;0.000;2023-06-05T19:35:13;22.20;55.50
70762;DHT22;58360;0.000;0.000;2023-06-05T19:37:39;22.20;55.80
70762;DHT22;58360;0.000;0.000;2023-06-05T19:40:05;22.20;56.00
70762;DHT22;58360;0.000;0.000;2023-06-05T19:42:31;22.00;56.30
70762;DHT22;58360;0.000;0.000;2023-06-05T19:44:57;21.80;56.70
70762;DHT22;58360;0.000;0.000;2023-06-05T19:47:23;21.90;56.60
70762;DHT22;58360;0.000;0.000;2023-06-05T19:49:49;22.00;56.80
70762;DHT22;58360;0.000;0.000;2023-06-05T19:52:14;22.00;56.30
70762;DHT22;58360;0.000;0.000;2023-06-05T19:54:40;21.80;56.70
70762;DHT22;58360;0.000;0.000;2023-06-05T19:57:06;21.90;57.40
70762;DHT22;58360;0.000;0.000;2023-06-05T19:59:33;21.90;56.80
70762;DHT22;58360;0.000;0.000;2023-06-05T20:01:59;21.80;56.70
70762;DHT22;58360;0.000;0.000;2023-06-05T20:04:24;21.90;56.80
70762;DHT22;58360;0.000;0.000;2023-06-05T20:06:50;21.80;56.10
70762;DHT22;58360;0.000;0.000;2023-06-05T20:09:16;21.80;56.10
70762;DHT22;58360;0.000;0.000;2023-06-05T20:11:41;21.50;56.90
70762;DHT22;58360;0.000;0.000;2023-06-05T20:14:08;21.40;57.60
70762;DHT22;58360;0.000;0.000;2023-06-05T20:16:33;21.30;58.30
70762;DHT22;58360;0.000;0.000;2023-06-05T20:19:00;21.30;58.40
70762;DHT22;58360;0.000;0.000;2023-06-05T20:21:25;21.50;57.80
70762;DHT22;58360;0.000;0.000;2023-06-05T20:23:51;21.40;57.70
70762;DHT22;58360;0.000;0.000;2023-06-05T20:26:20;21.40;57.90
70762;DHT22;58360;0.000;0.000;2023-06-05T20:28:47;21.20;57.90
70762;DHT22;58360;0.000;0.000;2023-06-05T20:31:12;21.20;58.70
70762;DHT22;58360;0.000;0.000;2023-06-05T20:33:38;21.10;58.80
70762;DHT22;58360;0.000;0.000;2023-06-05T20:36:05;21.00;58.90
70762;DHT22;58360;0.000;0.000;2023-06-05T20:38:34;21.00;59.30
70762;DHT22;58360;0.000;0.000;2023-06-05T20:41:03;20.90;59.80
70762;DHT22;58360;0.000;0.000;2023-06-05T20:43:32;20.70;59.80
70762;DHT22;58360;0.000;0.000;2023-06-05T20:46:07;20.70;60.70
70762;DHT22;58360;0.000;0.000;2023-06-05T20:48:33;20.80;60.00
70762;DHT22;58360;0.000;0.000;2023-06-05T20:50:59;20.80;60.40
70762;DHT22;58360;0.000;0.000;2023-06-05T20:53:26;20.80;61.00
70762;DHT22;58360;0.000;0.000;2023-06-05T20:55:51;20.60;60.60
70762;DHT22;58360;0.000;0.000;2023-06-05T20:58:18;20.50;61.50
70762;DHT22;58360;0.000;0.000;2023-06-05T21:00:44;20.30;61.60
70762;DHT22;58360;0.000;0.000;2023-06-05T21:03:10;20.40;62.00
70762;DHT22;58360;0.000;0.000;2023-06-05T21:05:36;20.10;62.50
70762;DHT22;58360;0.000;0.000;2023-06-05T21:08:02;20.10;63.50
70762;DHT22;58360;0.000;0.000;2023-06-05T21:10:29;20.00;62.90
70762;DHT22;58360;0.000;0.000;2023-06-05T21:12:55;20.10;63.60
70762;DHT22;58360;0.000;0.000;2023-06-05T21:15:21;20.20;63.10
70762;DHT22;58360;0.000;0.000;2023-06-05T21:17:47;20.00;62.80
70762;DHT22;58360;0.000;0.000;2023-06-05T21:20:12;19.90;63.50
70762;DHT22;58360;0.000;0.000;2023-06-05T21:22:38;20.00;63.90
70762;DHT22;58360;0.000;0.000;2023-06-05T21:25:05;19.90;64.20
70762;DHT22;58360;0.000;0.000;2023-06-05T21:27:30;20.00;63.90
70762;DHT22;58360;0.000;0.000;2023-06-05T21:29:56;19.80;64.40
70762;DHT22;58360;0.000;0.000;2023-06-05T21:32:22;19.60;65.10
70762;DHT22;58360;0.000;0.000;2023-06-05T21:34:48;19.60;65.70
70762;DHT22;58360;0.000;0.000;2023-06-05T21:37:14;19.70;65.50
70762;DHT22;58360;0.000;0.000;2023-06-05T21:39:41;19.70;65.50
70762;DHT22;58360;0.000;0.000;2023-06-05T21:42:07;19.40;66.30
70762;DHT22;58360;0.000;0.000;2023-06-05T21:44:40;19.40;67.00
70762;DHT22;58360;0.000;0.000;2023-06-05T21:47:10;19.30;67.50
70762;DHT22;58360;0.000;0.000;2023-06-05T21:49:36;19.10;67.70
70762;DHT22;58360;0.000;0.000;2023-06-05T21:52:01;19.10;68.80
70762;DHT22;58360;0.000;0.000;2023-06-05T21:54:27;19.20;68.80
70762;DHT22;58360;0.000;0.000;2023-06-05T21:56:53;19.20;68.50
70762;DHT22;58360;0.000;0.000;2023-06-05T21:59:18;19.20;69.20
70762;DHT22;58360;0.000;0.000;2023-06-05T22:01:44;19.30;69.10
70762;DHT22;58360;0.000;0.000;2023-06-05T22:04:10;19.20;69.20
70762;DHT22;58360;0.000;0.000;2023-06-05T22:06:36;19.20;69.10
70762;DHT22;58360;0.000;0.000;2023-06-05T22:09:02;19.00;69.90
70762;DHT22;58360;0.000;0.000;2023-06-05T22:11:30;19.00;70.30
70762;DHT22;58360;0.000;0.000;2023-06-05T22:14:01;19.00;70.40
70762;DHT22;58360;0.000;0.000;2023-06-05T22:16:28;18.70;71.40
70762;DHT22;58360;0.000;0.000;2023-06-05T22:19:06;18.70;72.00
70762;DHT22;58360;0.000;0.000;2023-06-05T22:21:35;18.60;72.60
70762;DHT22;58360;0.000;0.000;2023-06-05T22:24:02;18.70;72.80
70762;DHT22;58360;0.000;0.000;2023-06-05T22:26:28;18.80;72.50
70762;DHT22;58360;0.000;0.000;2023-06-05T22:28:54;18.80;72.00